Caroline, Canada
Current Conditions -  °F | °C
As of 3:00 AM on Sunday 25 Jan 2015 (Local Time) from CYQF Reporting Station
Overcast Overcast  
Wind Chill: 27°   Ceiling: 9000
Heat Index: 36°   Visibility: 15mi
Dew Point: 28°   Wind: 13mph
Humidity: 75%   Direction: 140°SE
Pressure: 29.76"   Gusts: NA
Location:  52.08°N, 114.75°W
Report Text: CYQF 251000Z 14011KT 15SM OVC090 02/M02 A2976 RMK AC8 PRESFR SLP112
Loading
Personal Weather Stations






























Interactive Weather Map New forecast layout! Learn more

10-Day Weather Forecast

Advertisements
Track Severe Weather on mobile